Time,TemperatureF,DewpointF,PressureIn,WindDirection,WindDirectionDegrees,WindSpeedMPH,WindSpeedGustMPH,Humidity,HourlyPrecipIn,Conditions,Clouds,dailyrainin,SoftwareType,DateUTC
2013-03-24 00:00:00,27.5,19.7,30.05,NW,309,0.0,0.0,72,0.00,,OVC050,0.00,VWS V14.01,2013-03-24 05:00:00,
2013-03-24 00:05:00,27.5,19.7,30.05,NW,309,0.0,0.0,72,0.00,,OVC050,0.00,VWS V14.01,2013-03-24 05:05:00,
2013-03-24 00:10:00,27.5,19.7,30.05,NW,309,0.0,0.0,72,0.00,,OVC050,0.00,VWS V14.01,2013-03-24 05:10:00,
2013-03-24 00:15:00,27.5,19.7,30.04,NW,309,0.0,0.0,72,0.00,,OVC050,0.00,VWS V14.01,2013-03-24 05:15:00,
2013-03-24 00:20:00,27.6,20.1,30.04,NW,309,0.0,0.0,73,0.00,,OVC050,0.00,VWS V14.01,2013-03-24 05:20:00,
2013-03-24 00:25:00,27.6,20.1,30.04,NW,309,0.0,0.0,73,0.00,,OVC050,0.00,VWS V14.01,2013-03-24 05:25:00,
2013-03-24 00:30:00,27.6,19.8,30.03,NW,309,0.0,0.0,72,0.00,,OVC050,0.00,VWS V14.01,2013-03-24 05:30:00,
2013-03-24 00:35:00,27.6,20.1,30.03,NW,309,0.0,0.0,73,0.00,,OVC050,0.00,VWS V14.01,2013-03-24 05:35:00,
2013-03-24 00:40:00,27.6,20.1,30.03,NW,309,0.0,0.0,73,0.00,,OVC050,0.00,VWS V14.01,2013-03-24 05:40:00,
2013-03-24 00:45:00,27.8,20.3,30.03,NW,309,0.0,0.0,73,0.00,,OVC050,0.00,VWS V14.01,2013-03-24 05:45:00,
2013-03-24 00:50:00,27.8,20.3,30.03,NW,309,0.0,0.0,73,0.00,,OVC050,0.00,VWS V14.01,2013-03-24 05:50:00,
2013-03-24 00:55:00,27.8,20.3,30.03,NW,309,0.0,0.0,73,0.00,,OVC050,0.00,VWS V14.01,2013-03-24 05:55:00,
2013-03-24 01:00:00,27.8,20.3,30.03,NW,309,0.0,0.0,73,0.00,,OVC050,0.00,VWS V14.01,2013-03-24 06:00:00,
2013-03-24 01:05:00,27.8,20.3,30.03,NW,309,0.0,0.0,73,0.00,,OVC050,0.00,VWS V14.01,2013-03-24 06:05:00,
2013-03-24 01:10:00,27.8,20.3,30.03,NW,309,0.0,0.0,73,0.00,,OVC050,0.00,VWS V14.01,2013-03-24 06:10:00,
2013-03-24 01:15:00,27.9,20.4,30.03,NW,309,0.0,0.0,73,0.00,,OVC050,0.00,VWS V14.01,2013-03-24 06:15:00,
2013-03-24 01:20:00,27.9,20.4,30.03,NW,309,0.0,0.0,73,0.00,,OVC050,0.00,VWS V14.01,2013-03-24 06:20:00,
2013-03-24 01:25:00,27.9,20.4,30.03,NW,309,0.0,0.0,73,0.00,,OVC050,0.00,VWS V14.01,2013-03-24 06:25:00,
2013-03-24 01:30:00,27.9,20.4,30.03,NW,309,0.0,0.0,73,0.00,,OVC050,0.00,VWS V14.01,2013-03-24 06:30:00,
2013-03-24 01:35:00,27.9,20.7,30.03,NW,309,0.0,0.0,74,0.00,,OVC050,0.00,VWS V14.01,2013-03-24 06:35:00,
2013-03-24 01:40:00,27.9,20.7,30.03,NW,309,0.0,2.0,74,0.00,,OVC050,0.00,VWS V14.01,2013-03-24 06:40:00,
2013-03-24 01:45:00,27.9,20.7,30.03,NW,309,0.0,0.0,74,0.00,,OVC050,0.00,VWS V14.01,2013-03-24 06:45:00,
2013-03-24 01:50:00,28.1,20.9,30.03,NW,309,0.0,0.0,74,0.00,,OVC050,0.00,VWS V14.01,2013-03-24 06:50:00,
2013-03-24 01:55:00,28.1,20.9,30.03,NW,309,0.0,0.0,74,0.00,,OVC050,0.00,VWS V14.01,2013-03-24 06:55:00,
2013-03-24 02:00:00,28.1,20.9,30.03,NW,309,0.0,3.0,74,0.00,,OVC055,0.00,VWS V14.01,2013-03-24 07:00:00,
2013-03-24 02:05:00,28.1,20.9,30.03,NW,309,0.0,0.0,74,0.00,,OVC055,0.00,VWS V14.01,2013-03-24 07:05:00,
2013-03-24 02:10:00,28.1,20.9,30.03,NW,309,0.0,0.0,74,0.00,,OVC055,0.00,VWS V14.01,2013-03-24 07:10:00,
2013-03-24 02:15:00,28.1,20.9,30.03,NW,309,1.0,2.0,74,0.00,,OVC055,0.00,VWS V14.01,2013-03-24 07:15:00,
2013-03-24 02:20:00,28.1,20.9,30.03,NW,309,0.0,2.0,74,0.00,,OVC055,0.00,VWS V14.01,2013-03-24 07:20:00,
2013-03-24 02:25:00,28.1,20.9,30.03,NW,309,0.0,0.0,74,0.00,,OVC055,0.00,VWS V14.01,2013-03-24 07:25:00,
2013-03-24 02:30:00,28.1,20.9,30.02,NW,309,0.0,0.0,74,0.00,,OVC055,0.00,VWS V14.01,2013-03-24 07:30:00,
2013-03-24 02:35:00,28.1,20.9,30.02,NW,309,0.0,0.0,74,0.00,,OVC055,0.00,VWS V14.01,2013-03-24 07:35:00,
2013-03-24 02:40:00,27.9,20.7,30.02,NW,309,0.0,0.0,74,0.00,,OVC055,0.00,VWS V14.01,2013-03-24 07:40:00,
2013-03-24 02:45:00,27.9,20.7,30.02,NW,309,0.0,0.0,74,0.00,,OVC055,0.00,VWS V14.01,2013-03-24 07:45:00,
2013-03-24 02:50:00,27.9,20.7,30.02,NW,309,0.0,0.0,74,0.00,,OVC055,0.00,VWS V14.01,2013-03-24 07:50:00,
2013-03-24 02:55:00,27.9,20.7,30.02,NW,309,0.0,0.0,74,0.00,,OVC055,0.00,VWS V14.01,2013-03-24 07:55:00,
2013-03-24 03:00:00,27.9,20.7,30.02,NW,309,0.0,0.0,74,0.00,,OVC055,0.00,VWS V14.01,2013-03-24 08:00:00,
2013-03-24 03:05:00,27.8,20.9,30.02,NW,309,0.0,0.0,75,0.00,,OVC055,0.00,VWS V14.01,2013-03-24 08:05:00,
2013-03-24 03:10:00,27.8,20.9,30.02,NW,309,0.0,0.0,75,0.00,,OVC055,0.00,VWS V14.01,2013-03-24 08:10:00,
2013-03-24 03:15:00,27.8,20.9,30.01,NW,309,0.0,0.0,75,0.00,,OVC055,0.00,VWS V14.01,2013-03-24 08:15:00,
2013-03-24 03:20:00,27.6,20.7,30.01,NW,309,0.0,0.0,75,0.00,,OVC055,0.00,VWS V14.01,2013-03-24 08:20:00,
2013-03-24 03:25:00,27.6,20.7,30.01,NW,309,0.0,0.0,75,0.00,,OVC055,0.00,VWS V14.01,2013-03-24 08:25:00,
2013-03-24 03:30:00,27.6,20.7,30.00,NW,309,0.0,0.0,75,0.00,,OVC055,0.00,VWS V14.01,2013-03-24 08:30:00,
2013-03-24 03:35:00,27.6,20.7,30.00,NW,309,0.0,0.0,75,0.00,,OVC055,0.00,VWS V14.01,2013-03-24 08:35:00,
2013-03-24 03:40:00,27.5,20.6,30.00,NW,309,0.0,0.0,75,0.00,,OVC055,0.00,VWS V14.01,2013-03-24 08:40:00,
2013-03-24 03:45:00,27.5,20.9,30.01,NW,315,0.0,0.0,76,0.00,,---,0.00,VWS V14.01,2013-03-24 08:45:00,
2013-03-24 03:50:00,27.5,20.9,30.01,NW,315,0.0,0.0,76,0.00,,---,0.00,VWS V14.01,2013-03-24 08:50:00,
2013-03-24 03:55:00,27.5,20.9,30.01,NW,315,0.0,0.0,76,0.00,,---,0.00,VWS V14.01,2013-03-24 08:55:00,
2013-03-24 04:00:00,27.5,20.9,30.01,NW,315,0.0,0.0,76,0.00,,---,0.00,VWS V14.01,2013-03-24 09:00:00,
2013-03-24 04:05:00,27.5,20.9,30.01,NW,309,0.0,0.0,76,0.00,,OVC055,0.00,VWS V14.01,2013-03-24 09:05:00,
2013-03-24 04:10:00,27.5,20.9,30.01,NW,315,1.0,3.0,76,0.00,,---,0.00,VWS V14.01,2013-03-24 09:10:00,
2013-03-24 04:15:00,27.5,20.9,30.01,NNW,338,0.0,3.0,76,0.00,,---,0.00,VWS V14.01,2013-03-24 09:15:00,
2013-03-24 04:20:00,27.5,20.6,30.01,NNW,338,0.0,0.0,75,0.00,,---,0.00,VWS V14.01,2013-03-24 09:20:00,
2013-03-24 04:25:00,27.5,20.6,30.01,NNW,329,0.0,0.0,75,0.00,,OVC055,0.00,VWS V14.01,2013-03-24 09:25:00,
2013-03-24 04:30:00,27.6,20.7,30.01,NNW,338,0.0,0.0,75,0.00,,---,0.00,VWS V14.01,2013-03-24 09:30:00,
2013-03-24 04:35:00,27.6,21.0,30.01,NNW,329,0.0,0.0,76,0.00,,OVC055,0.00,VWS V14.01,2013-03-24 09:35:00,
2013-03-24 04:40:00,27.6,21.0,30.01,NNW,338,0.0,0.0,76,0.00,,---,0.00,VWS V14.01,2013-03-24 09:40:00,
2013-03-24 04:45:00,27.6,21.0,30.01,NNW,338,0.0,0.0,76,0.00,,---,0.00,VWS V14.01,2013-03-24 09:45:00,
2013-03-24 04:47:00,27.5,20.9,30.01,NW,309,0.0,0.0,76,0.00,,OVC055,0.00,VWS V14.01,2013-03-24 09:47:00,
2013-03-24 04:50:00,27.8,21.5,30.01,NNW,338,1.0,3.0,77,0.00,,---,0.00,VWS V14.01,2013-03-24 09:50:00,
2013-03-24 04:55:00,27.8,21.5,30.01,NNW,338,1.0,3.0,77,0.00,,---,0.00,VWS V14.01,2013-03-24 09:55:00,
2013-03-24 04:57:00,27.5,20.9,30.01,NW,309,0.0,0.0,76,0.00,,OVC055,0.00,VWS V14.01,2013-03-24 09:57:00,
2013-03-24 05:00:00,27.6,21.4,30.01,NNW,338,0.0,3.0,77,0.00,,---,0.00,VWS V14.01,2013-03-24 10:00:00,
2013-03-24 05:02:00,27.5,20.9,30.01,NW,309,0.0,0.0,76,0.00,,OVC055,0.00,VWS V14.01,2013-03-24 10:02:00,
2013-03-24 05:05:00,27.6,21.6,30.01,NNW,338,0.0,2.0,78,0.00,,---,0.00,VWS V14.01,2013-03-24 10:05:00,
2013-03-24 05:10:00,27.6,21.6,30.01,NNW,338,0.0,3.0,78,0.00,,---,0.00,VWS V14.01,2013-03-24 10:10:00,
2013-03-24 05:12:00,27.5,20.9,30.01,NNW,329,3.0,3.0,76,0.00,,OVC055,0.00,VWS V14.01,2013-03-24 10:12:00,
2013-03-24 05:15:00,27.6,22.0,30.02,NNW,338,0.0,1.0,79,0.00,,---,0.00,VWS V14.01,2013-03-24 10:15:00,
2013-03-24 05:17:00,27.5,20.9,30.01,NNW,329,0.0,3.0,76,0.00,,OVC055,0.00,VWS V14.01,2013-03-24 10:17:00,
2013-03-24 05:20:00,27.6,22.0,30.02,NNW,339,0.0,3.0,79,0.00,,,0.00,VWS V14.01,2013-03-24 10:20:00,
2013-03-24 05:22:00,27.5,20.6,30.01,NNW,329,0.0,0.0,75,0.00,,OVC055,0.00,VWS V14.01,2013-03-24 10:22:00,
2013-03-24 05:25:00,27.6,22.0,30.02,NNW,339,0.0,0.0,79,0.00,,,0.00,VWS V14.01,2013-03-24 10:25:00,
2013-03-24 05:30:00,27.5,22.1,30.01,NNW,338,0.0,0.0,80,0.00,,---,0.00,VWS V14.01,2013-03-24 10:30:00,
2013-03-24 05:32:00,27.6,20.7,30.01,NNW,329,0.0,0.0,75,0.00,,OVC055,0.00,VWS V14.01,2013-03-24 10:32:00,
2013-03-24 05:35:00,27.5,22.1,30.01,NNW,338,0.0,0.0,80,0.00,,---,0.00,VWS V14.01,2013-03-24 10:35:00,
2013-03-24 05:40:00,27.3,22.0,30.01,NNW,339,0.0,0.0,80,0.00,,,0.00,VWS V14.01,2013-03-24 10:40:00,
2013-03-24 05:42:00,27.6,21.0,30.01,NNW,329,0.0,0.0,76,0.00,,OVC055,0.00,VWS V14.01,2013-03-24 10:42:00,
2013-03-24 05:45:00,27.3,22.0,30.01,NNW,338,0.0,0.0,80,0.00,,---,0.00,VWS V14.01,2013-03-24 10:45:00,
2013-03-24 05:47:00,27.6,21.0,30.01,NNW,329,0.0,0.0,76,0.00,,OVC055,0.00,VWS V14.01,2013-03-24 10:47:00,
2013-03-24 05:50:00,27.3,22.0,30.01,NNW,339,0.0,0.0,80,0.00,,,0.00,VWS V14.01,2013-03-24 10:50:00,
2013-03-24 05:52:00,27.6,21.4,30.01,NNW,331,0.0,3.0,77,0.00,,OVC055,0.00,VWS V14.01,2013-03-24 10:52:00,
2013-03-24 05:55:00,27.3,22.0,30.01,NNW,338,0.0,0.0,80,0.00,,---,0.00,VWS V14.01,2013-03-24 10:55:00,
2013-03-24 05:57:00,27.8,21.5,30.01,NNW,335,3.0,3.0,77,0.00,,OVC055,0.00,VWS V14.01,2013-03-24 10:57:00,
2013-03-24 06:00:00,27.3,22.0,30.02,NNW,339,0.0,0.0,80,0.00,,OVC055,0.00,VWS V14.01,2013-03-24 11:00:00,
2013-03-24 06:05:00,27.3,22.0,30.02,NNW,338,0.0,0.0,80,0.00,,---,0.00,VWS V14.01,2013-03-24 11:05:00,
2013-03-24 06:07:00,27.6,21.6,30.01,NNW,336,0.0,2.0,78,0.00,,,0.00,VWS V14.01,2013-03-24 11:07:00,
2013-03-24 06:10:00,27.3,22.0,30.02,NNW,338,0.0,0.0,80,0.00,,---,0.00,VWS V14.01,2013-03-24 11:10:00,
2013-03-24 06:15:00,27.3,22.0,30.02,NNW,338,0.0,0.0,80,0.00,,---,0.00,VWS V14.01,2013-03-24 11:15:00,
2013-03-24 06:17:00,27.6,22.0,30.02,NNW,340,0.0,2.0,79,0.00,,,0.00,VWS V14.01,2013-03-24 11:17:00,
2013-03-24 06:20:00,27.5,21.9,30.02,NNW,338,0.0,0.0,79,0.00,,---,0.00,VWS V14.01,2013-03-24 11:20:00,
2013-03-24 06:25:00,27.5,21.9,30.02,NNW,338,0.0,0.0,79,0.00,,---,0.00,VWS V14.01,2013-03-24 11:25:00,
2013-03-24 06:30:00,27.6,21.6,30.02,NNW,338,0.0,0.0,78,0.00,,---,0.00,VWS V14.01,2013-03-24 11:30:00,
2013-03-24 06:32:00,27.5,22.1,30.01,NNW,339,0.0,0.0,80,0.00,,,0.00,VWS V14.01,2013-03-24 11:32:00,
2013-03-24 06:35:00,27.6,21.4,30.02,NNW,338,0.0,0.0,77,0.00,,---,0.00,VWS V14.01,2013-03-24 11:35:00,
2013-03-24 06:37:00,27.5,22.1,30.01,NNW,338,0.0,0.0,80,0.00,,,0.00,VWS V14.01,2013-03-24 11:37:00,
2013-03-24 06:40:00,27.8,21.2,30.02,NNW,338,0.0,0.0,76,0.00,,---,0.00,VWS V14.01,2013-03-24 11:40:00,
2013-03-24 06:45:00,27.8,21.2,30.02,North,0,0.0,3.0,76,0.00,,---,0.00,VWS V14.01,2013-03-24 11:45:00,
2013-03-24 06:50:00,27.9,21.0,30.02,North,0,1.0,5.0,75,0.00,,---,0.00,VWS V14.01,2013-03-24 11:50:00,
2013-03-24 06:55:00,27.9,20.4,30.02,NNE,22,1.0,4.0,73,0.00,,---,0.00,VWS V14.01,2013-03-24 11:55:00,
2013-03-24 06:57:00,27.3,22.0,30.01,NNW,339,0.0,0.0,80,0.00,,,0.00,VWS V14.01,2013-03-24 11:57:00,
2013-03-24 07:00:00,28.1,20.2,30.02,NNE,22,0.0,3.0,72,0.00,,---,0.00,VWS V14.01,2013-03-24 12:00:00,
2013-03-24 07:05:00,28.1,19.9,30.02,ENE,68,1.0,4.0,71,0.00,,---,0.00,VWS V14.01,2013-03-24 12:05:00,
2013-03-24 07:07:00,27.3,22.0,30.02,NNW,339,0.0,0.0,80,0.00,,OVC055,0.00,VWS V14.01,2013-03-24 12:07:00,
2013-03-24 07:10:00,28.2,20.0,30.02,NE,45,1.0,3.0,71,0.00,,---,0.00,VWS V14.01,2013-03-24 12:10:00,
2013-03-24 07:12:00,27.3,22.0,30.02,NNW,339,0.0,0.0,80,0.00,,OVC055,0.00,VWS V14.01,2013-03-24 12:12:00,
2013-03-24 07:15:00,28.2,19.7,30.02,NE,45,2.0,4.0,70,0.00,,---,0.00,VWS V14.01,2013-03-24 12:15:00,
2013-03-24 07:17:00,27.3,22.0,30.02,North,355,0.0,0.0,80,0.00,,OVC055,0.00,VWS V14.01,2013-03-24 12:17:00,
2013-03-24 07:20:00,28.2,19.7,30.02,NE,45,2.0,3.0,70,0.00,,---,0.00,VWS V14.01,2013-03-24 12:20:00,
2013-03-24 07:22:00,27.5,21.9,30.02,North,355,0.0,0.0,79,0.00,,OVC055,0.00,VWS V14.01,2013-03-24 12:22:00,
2013-03-24 07:25:00,28.2,19.4,30.02,NE,45,3.0,6.0,69,0.00,,---,0.00,VWS V14.01,2013-03-24 12:25:00,
2013-03-24 07:27:00,27.5,21.9,30.02,North,355,0.0,0.0,79,0.00,,OVC055,0.00,VWS V14.01,2013-03-24 12:27:00,
2013-03-24 07:30:00,28.4,19.2,30.01,NE,45,2.0,5.0,68,0.00,,---,0.00,VWS V14.01,2013-03-24 12:30:00,
2013-03-24 07:32:00,27.6,21.6,30.02,North,355,0.0,0.0,78,0.00,,OVC055,0.00,VWS V14.01,2013-03-24 12:32:00,
2013-03-24 07:35:00,28.4,19.2,30.01,NE,45,3.0,7.0,68,0.00,,---,0.00,VWS V14.01,2013-03-24 12:35:00,
2013-03-24 07:40:00,28.4,19.2,30.01,NE,45,2.0,6.0,68,0.00,,---,0.00,VWS V14.01,2013-03-24 12:40:00,
2013-03-24 07:42:00,27.8,21.2,30.02,North,355,0.0,0.0,76,0.00,,OVC055,0.00,VWS V14.01,2013-03-24 12:42:00,
2013-03-24 07:45:00,28.4,19.2,30.01,NE,45,1.0,4.0,68,0.00,,---,0.00,VWS V14.01,2013-03-24 12:45:00,
2013-03-24 07:50:00,28.5,19.3,30.01,NE,45,2.0,7.0,68,0.00,,---,0.00,VWS V14.01,2013-03-24 12:50:00,
2013-03-24 07:52:00,27.9,21.0,30.02,NNE,19,0.0,5.0,75,0.00,,OVC055,0.00,VWS V14.01,2013-03-24 12:52:00,
2013-03-24 07:55:00,28.4,18.9,30.01,NE,46,4.0,9.0,67,0.00,,OVC055,0.00,VWS V14.01,2013-03-24 12:55:00,
2013-03-24 08:00:00,28.5,18.6,30.01,NE,45,2.0,5.0,66,0.00,,---,0.00,VWS V14.01,2013-03-24 13:00:00,
2013-03-24 08:02:00,28.1,20.2,30.02,NNE,26,0.0,3.0,72,0.00,,OVC055,0.00,VWS V14.01,2013-03-24 13:02:00,
2013-03-24 08:05:00,28.7,18.8,30.01,NE,45,2.0,7.0,66,0.00,,---,0.00,VWS V14.01,2013-03-24 13:05:00,
2013-03-24 08:07:00,28.1,19.9,30.02,NE,40,0.0,3.0,71,0.00,,OVC055,0.00,VWS V14.01,2013-03-24 13:07:00,
2013-03-24 08:10:00,28.8,18.9,30.01,ENE,68,2.0,5.0,66,0.00,,---,0.00,VWS V14.01,2013-03-24 13:10:00,
2013-03-24 08:15:00,29.0,18.7,30.01,ENE,68,2.0,5.0,65,0.00,,---,0.00,VWS V14.01,2013-03-24 13:15:00,
2013-03-24 08:17:00,28.2,19.7,30.02,NE,49,2.0,4.0,70,0.00,,OVC055,0.00,VWS V14.01,2013-03-24 13:17:00,
2013-03-24 08:20:00,29.0,18.4,30.01,NE,45,4.0,9.0,64,0.00,,---,0.00,VWS V14.01,2013-03-24 13:20:00,
2013-03-24 08:22:00,28.2,19.7,30.02,NE,45,2.0,3.0,70,0.00,,OVC055,0.00,VWS V14.01,2013-03-24 13:22:00,
2013-03-24 08:25:00,29.1,18.5,30.01,NE,42,3.0,9.0,64,0.00,,OVC100,0.00,VWS V14.01,2013-03-24 13:25:00,
2013-03-24 08:27:00,28.2,19.4,30.02,ENE,57,1.0,6.0,69,0.00,,OVC055,0.00,VWS V14.01,2013-03-24 13:27:00,
2013-03-24 08:30:00,29.0,18.0,30.01,NE,45,4.0,12.0,63,0.00,,---,0.00,VWS V14.01,2013-03-24 13:30:00,
2013-03-24 08:32:00,28.4,19.2,30.01,NE,52,2.0,5.0,68,0.00,,OVC055,0.00,VWS V14.01,2013-03-24 13:32:00,
2013-03-24 08:35:00,29.0,18.4,30.01,NE,45,4.0,11.0,64,0.00,,---,0.00,VWS V14.01,2013-03-24 13:35:00,
2013-03-24 08:40:00,29.0,18.4,30.01,ENE,68,4.0,9.0,64,0.00,,---,0.00,VWS V14.01,2013-03-24 13:40:00,
2013-03-24 08:42:00,28.4,19.2,30.01,NE,53,0.0,6.0,68,0.00,,OVC055,0.00,VWS V14.01,2013-03-24 13:42:00,
2013-03-24 08:45:00,29.1,18.1,30.01,ENE,68,3.0,8.0,63,0.00,,---,0.00,VWS V14.01,2013-03-24 13:45:00,
2013-03-24 08:50:00,29.3,18.3,30.01,NE,45,3.0,10.0,63,0.00,,---,0.00,VWS V14.01,2013-03-24 13:50:00,
2013-03-24 08:52:00,28.5,19.3,30.01,ENE,68,2.0,7.0,68,0.00,,OVC055,0.00,VWS V14.01,2013-03-24 13:52:00,
2013-03-24 08:55:00,29.3,18.6,30.01,ENE,73,5.0,10.0,64,0.00,,OVC100,0.00,VWS V14.01,2013-03-24 13:55:00,
2013-03-24 09:00:00,29.3,18.3,30.01,NE,45,4.0,8.0,63,0.00,,---,0.00,VWS V14.01,2013-03-24 14:00:00,
2013-03-24 09:02:00,28.5,18.6,30.01,NE,55,2.0,5.0,66,0.00,,OVC100,0.00,VWS V14.01,2013-03-24 14:02:00,
2013-03-24 09:05:00,29.4,18.7,30.01,ENE,68,3.0,7.0,64,0.00,,---,0.00,VWS V14.01,2013-03-24 14:05:00,
2013-03-24 09:07:00,28.7,18.8,30.01,NE,55,4.0,7.0,66,0.00,,OVC100,0.00,VWS V14.01,2013-03-24 14:07:00,
2013-03-24 09:10:00,29.4,18.4,30.01,NE,45,4.0,7.0,63,0.00,,---,0.00,VWS V14.01,2013-03-24 14:10:00,
2013-03-24 09:15:00,29.5,18.5,30.01,NNE,22,4.0,11.0,63,0.00,,---,0.00,VWS V14.01,2013-03-24 14:15:00,
2013-03-24 09:17:00,29.0,18.7,30.01,ENE,64,0.0,5.0,65,0.00,,OVC100,0.00,VWS V14.01,2013-03-24 14:17:00,
2013-03-24 09:20:00,29.5,18.5,30.01,NE,45,4.0,9.0,63,0.00,,---,0.00,VWS V14.01,2013-03-24 14:20:00,
2013-03-24 09:25:00,29.5,18.5,30.01,NE,45,5.0,10.0,63,0.00,,---,0.00,VWS V14.01,2013-03-24 14:25:00,
2013-03-24 09:30:00,29.7,18.3,30.01,NE,45,5.0,13.0,62,0.00,,---,0.00,VWS V14.01,2013-03-24 14:30:00,
2013-03-24 09:32:00,29.0,18.0,30.01,ENE,57,2.0,12.0,63,0.00,,OVC100,0.00,VWS V14.01,2013-03-24 14:32:00,
2013-03-24 09:35:00,29.8,18.4,30.01,NE,45,5.0,13.0,62,0.00,,---,0.00,VWS V14.01,2013-03-24 14:35:00,
2013-03-24 09:37:00,29.0,18.4,30.01,NE,53,4.0,11.0,64,0.00,,OVC100,0.00,VWS V14.01,2013-03-24 14:37:00,
2013-03-24 09:40:00,30.3,18.9,30.01,NE,45,3.0,9.0,62,0.00,,---,0.00,VWS V14.01,2013-03-24 14:40:00,
2013-03-24 09:45:00,30.6,19.1,30.00,NNE,22,5.0,13.0,62,0.00,,---,0.00,VWS V14.01,2013-03-24 14:45:00,
2013-03-24 09:47:00,29.1,18.1,30.01,East,90,1.0,7.0,63,0.00,,OVC100,0.00,VWS V14.01,2013-03-24 14:47:00,
2013-03-24 09:50:00,30.6,19.1,30.00,NE,45,5.0,11.0,62,0.00,,---,0.00,VWS V14.01,2013-03-24 14:50:00,
2013-03-24 09:52:00,29.3,18.3,30.01,NE,53,3.0,10.0,63,0.00,,OVC100,0.00,VWS V14.01,2013-03-24 14:52:00,
2013-03-24 09:55:00,30.7,19.2,30.00,NE,45,5.0,10.0,62,0.00,,---,0.00,VWS V14.01,2013-03-24 14:55:00,
2013-03-24 10:00:00,30.9,19.0,30.00,NNE,22,4.0,8.0,61,0.00,,---,0.00,VWS V14.01,2013-03-24 15:00:00,
2013-03-24 10:02:00,29.3,18.3,30.01,NE,54,2.0,8.0,63,0.00,,OVC045,0.00,VWS V14.01,2013-03-24 15:02:00,
2013-03-24 10:05:00,30.6,18.8,30.00,NNE,22,5.0,11.0,61,0.00,,---,0.00,VWS V14.01,2013-03-24 15:05:00,
2013-03-24 10:10:00,30.6,19.1,30.00,NE,45,3.0,10.0,62,0.00,,---,0.00,VWS V14.01,2013-03-24 15:10:00,
2013-03-24 10:12:00,29.4,18.4,30.01,NNE,33,0.0,7.0,63,0.00,,OVC045,0.00,VWS V14.01,2013-03-24 15:12:00,
2013-03-24 10:15:00,30.6,19.1,29.99,NE,45,4.0,7.0,62,0.00,,---,0.00,VWS V14.01,2013-03-24 15:15:00,
2013-03-24 10:20:00,30.4,19.0,29.99,NE,45,5.0,12.0,62,0.00,,---,0.00,VWS V14.01,2013-03-24 15:20:00,
2013-03-24 10:22:00,29.5,18.5,30.01,NE,53,3.0,9.0,63,0.00,,OVC045,0.00,VWS V14.01,2013-03-24 15:22:00,
2013-03-24 10:25:00,30.4,18.6,29.99,NE,45,7.0,14.0,61,0.00,,---,0.00,VWS V14.01,2013-03-24 15:25:00,
2013-03-24 10:27:00,29.5,18.5,30.01,NE,55,6.0,10.0,63,0.00,,OVC045,0.00,VWS V14.01,2013-03-24 15:27:00,
2013-03-24 10:30:00,30.4,19.0,29.99,NE,45,7.0,14.0,62,0.00,,---,0.00,VWS V14.01,2013-03-24 15:30:00,
2013-03-24 10:35:00,30.6,18.8,29.99,NE,45,5.0,11.0,61,0.00,,---,0.00,VWS V14.01,2013-03-24 15:35:00,
2013-03-24 10:37:00,29.8,18.4,30.01,ENE,66,4.0,11.0,62,0.00,,OVC045,0.00,VWS V14.01,2013-03-24 15:37:00,
2013-03-24 10:40:00,30.4,19.0,29.99,NE,45,8.0,13.0,62,0.00,,---,0.00,VWS V14.01,2013-03-24 15:40:00,
2013-03-24 10:45:00,30.9,19.0,29.98,NE,45,5.0,11.0,61,0.00,,---,0.00,VWS V14.01,2013-03-24 15:45:00,
2013-03-24 10:47:00,30.6,19.1,30.00,NE,46,6.0,13.0,62,0.00,,OVC045,0.00,VWS V14.01,2013-03-24 15:47:00,
2013-03-24 10:50:00,31.2,19.3,29.98,NE,45,6.0,13.0,61,0.00,,---,0.00,VWS V14.01,2013-03-24 15:50:00,
2013-03-24 10:55:00,31.2,19.3,29.98,NE,45,5.0,11.0,61,0.00,,---,0.00,VWS V14.01,2013-03-24 15:55:00,
2013-03-24 10:57:00,30.7,19.2,30.00,NE,34,6.0,10.0,62,0.00,,OVC045,0.00,VWS V14.01,2013-03-24 15:57:00,
2013-03-24 11:00:00,30.9,19.0,29.98,NE,45,6.0,11.0,61,0.00,,---,0.00,VWS V14.01,2013-03-24 16:00:00,
2013-03-24 11:02:00,30.9,19.0,30.00,North,5,4.0,8.0,61,0.00,,SCT055,0.00,VWS V14.01,2013-03-24 16:02:00,
2013-03-24 11:05:00,30.9,19.0,29.98,NE,45,6.0,14.0,61,0.00,,---,0.00,VWS V14.01,2013-03-24 16:05:00,
2013-03-24 11:07:00,30.6,18.8,30.00,NE,34,5.0,11.0,61,0.00,,SCT055,0.00,VWS V14.01,2013-03-24 16:07:00,
2013-03-24 11:10:00,31.0,19.5,29.98,ENE,68,6.0,14.0,62,0.00,,---,0.00,VWS V14.01,2013-03-24 16:10:00,
2013-03-24 11:12:00,30.6,19.1,30.00,North,5,6.0,10.0,62,0.00,,SCT055,0.00,VWS V14.01,2013-03-24 16:12:00,
2013-03-24 11:15:00,31.0,19.5,29.98,NE,45,5.0,13.0,62,0.00,,---,0.00,VWS V14.01,2013-03-24 16:15:00,
2013-03-24 11:20:00,31.0,19.5,29.98,NE,45,4.0,11.0,62,0.00,,---,0.00,VWS V14.01,2013-03-24 16:20:00,
2013-03-24 11:22:00,30.4,19.0,29.99,NE,39,4.0,12.0,62,0.00,,SCT055,0.00,VWS V14.01,2013-03-24 16:22:00,
2013-03-24 11:25:00,30.9,19.4,29.98,ENE,68,7.0,13.0,62,0.00,,---,0.00,VWS V14.01,2013-03-24 16:25:00,
2013-03-24 11:27:00,30.4,18.6,29.99,NE,49,9.0,12.0,61,0.00,,SCT055,0.00,VWS V14.01,2013-03-24 16:27:00,
2013-03-24 11:30:00,31.0,19.5,29.98,NE,45,4.0,11.0,62,0.00,,---,0.00,VWS V14.01,2013-03-24 16:30:00,
2013-03-24 11:32:00,30.4,19.0,29.99,NE,53,13.0,14.0,62,0.00,,SCT055,0.00,VWS V14.01,2013-03-24 16:32:00,
2013-03-24 11:35:00,31.2,20.1,29.98,NE,45,3.0,6.0,63,0.00,,---,0.00,VWS V14.01,2013-03-24 16:35:00,
2013-03-24 11:40:00,31.2,19.7,29.98,NE,45,4.0,11.0,62,0.00,,---,0.00,VWS V14.01,2013-03-24 16:40:00,
2013-03-24 11:42:00,30.4,19.0,29.99,NE,36,4.0,13.0,62,0.00,,SCT055,0.00,VWS V14.01,2013-03-24 16:42:00,
2013-03-24 11:45:00,31.0,19.5,29.98,ENE,68,6.0,12.0,62,0.00,,---,0.00,VWS V14.01,2013-03-24 16:45:00,
2013-03-24 11:47:00,30.9,19.0,29.98,NE,53,11.0,11.0,61,0.00,,SCT055,0.00,VWS V14.01,2013-03-24 16:47:00,
2013-03-24 11:50:00,31.0,19.9,29.98,ENE,68,4.0,11.0,63,0.00,,---,0.00,VWS V14.01,2013-03-24 16:50:00,
2013-03-24 11:52:00,31.2,19.3,29.98,ENE,76,7.0,13.0,61,0.00,,SCT055,0.00,VWS V14.01,2013-03-24 16:52:00,
2013-03-24 11:55:00,31.2,20.1,29.98,ENE,68,4.0,9.0,63,0.00,,---,0.00,VWS V14.01,2013-03-24 16:55:00,
2013-03-24 11:57:00,31.2,19.3,29.98,NE,40,5.0,11.0,61,0.00,,SCT055,0.00,VWS V14.01,2013-03-24 16:57:00,
2013-03-24 12:00:00,31.5,20.4,29.98,ENE,68,3.0,7.0,63,0.00,,---,0.00,VWS V14.01,2013-03-24 17:00:00,
2013-03-24 12:02:00,30.9,19.0,29.98,NNE,26,3.0,11.0,61,0.00,,BKN110,0.00,VWS V14.01,2013-03-24 17:02:00,
2013-03-24 12:05:00,31.5,20.4,29.98,ENE,68,4.0,11.0,63,0.00,,---,0.00,VWS V14.01,2013-03-24 17:05:00,
2013-03-24 12:07:00,30.9,19.0,29.98,NNE,25,3.0,14.0,61,0.00,,BKN110,0.00,VWS V14.01,2013-03-24 17:07:00,
2013-03-24 12:10:00,31.3,20.2,29.98,NE,45,4.0,10.0,63,0.00,,---,0.00,VWS V14.01,2013-03-24 17:10:00,
2013-03-24 12:12:00,31.0,19.5,29.98,NNE,24,5.0,14.0,62,0.00,,BKN110,0.00,VWS V14.01,2013-03-24 17:12:00,
2013-03-24 12:15:00,31.0,20.3,29.98,NE,45,5.0,10.0,64,0.00,,---,0.00,VWS V14.01,2013-03-24 17:15:00,
2013-03-24 12:20:00,31.2,20.5,29.98,NE,45,5.0,11.0,64,0.00,,---,0.00,VWS V14.01,2013-03-24 17:20:00,
2013-03-24 12:22:00,31.0,19.5,29.98,NNE,24,9.0,11.0,62,0.00,,BKN110,0.00,VWS V14.01,2013-03-24 17:22:00,
2013-03-24 12:25:00,31.0,20.3,29.98,NE,45,6.0,12.0,64,0.00,,---,0.00,VWS V14.01,2013-03-24 17:25:00,
2013-03-24 12:27:00,30.9,19.4,29.98,NE,41,3.0,13.0,62,0.00,,BKN110,0.00,VWS V14.01,2013-03-24 17:27:00,
2013-03-24 12:30:00,30.9,20.5,29.98,ENE,68,4.0,11.0,65,0.00,,---,0.00,VWS V14.01,2013-03-24 17:30:00,
2013-03-24 12:32:00,31.0,19.5,29.98,NNE,16,6.0,11.0,62,0.00,,BKN110,0.00,VWS V14.01,2013-03-24 17:32:00,
2013-03-24 12:35:00,30.9,20.5,29.98,NE,45,4.0,9.0,65,0.00,,---,0.00,VWS V14.01,2013-03-24 17:35:00,
2013-03-24 12:40:00,30.9,20.5,29.98,NE,45,4.0,10.0,65,0.00,,---,0.00,VWS V14.01,2013-03-24 17:40:00,
2013-03-24 12:42:00,31.2,19.7,29.98,ENE,68,11.0,11.0,62,0.00,,BKN110,0.00,VWS V14.01,2013-03-24 17:42:00,
2013-03-24 12:45:00,31.0,20.6,29.98,ENE,68,4.0,10.0,65,0.00,,---,0.00,VWS V14.01,2013-03-24 17:45:00,
2013-03-24 12:47:00,31.0,19.5,29.98,ENE,72,6.0,12.0,62,0.00,,BKN110,0.00,VWS V14.01,2013-03-24 17:47:00,
2013-03-24 12:50:00,31.0,20.6,29.98,ENE,68,3.0,8.0,65,0.00,,---,0.00,VWS V14.01,2013-03-24 17:50:00,
2013-03-24 12:52:00,31.0,19.9,29.98,NE,51,3.0,11.0,63,0.00,,BKN110,0.00,VWS V14.01,2013-03-24 17:52:00,
2013-03-24 12:55:00,30.9,20.5,29.98,NE,45,4.0,11.0,65,0.00,,---,0.00,VWS V14.01,2013-03-24 17:55:00,
2013-03-24 12:57:00,31.2,20.1,29.98,NE,46,2.0,9.0,63,0.00,,BKN110,0.00,VWS V14.01,2013-03-24 17:57:00,
2013-03-24 13:00:00,30.7,20.3,29.99,NE,45,4.0,9.0,65,0.00,,---,0.00,VWS V14.01,2013-03-24 18:00:00,
2013-03-24 13:02:00,31.5,20.4,29.98,NE,47,3.0,7.0,63,0.00,,OVC027,0.00,VWS V14.01,2013-03-24 18:02:00,
2013-03-24 13:05:00,30.6,20.2,29.99,ENE,68,5.0,12.0,65,0.00,,---,0.00,VWS V14.01,2013-03-24 18:05:00,
2013-03-24 13:08:00,31.5,20.4,29.98,ENE,71,2.0,11.0,63,0.00,,OVC027,0.00,VWS V14.01,2013-03-24 18:08:00,
2013-03-24 13:10:00,30.6,20.6,29.99,ENE,68,4.0,10.0,66,0.00,,---,0.00,VWS V14.01,2013-03-24 18:10:00,
2013-03-24 13:15:00,30.4,20.4,29.98,NE,45,5.0,12.0,66,0.00,,---,0.00,VWS V14.01,2013-03-24 18:15:00,
2013-03-24 13:17:00,31.0,20.3,29.98,NE,51,3.0,10.0,64,0.00,,OVC027,0.00,VWS V14.01,2013-03-24 18:17:00,
2013-03-24 13:20:00,30.4,20.1,29.98,NE,45,6.0,11.0,65,0.00,,---,0.00,VWS V14.01,2013-03-24 18:20:00,
2013-03-24 13:22:00,31.2,20.5,29.98,NE,51,5.0,11.0,64,0.00,,OVC027,0.00,VWS V14.01,2013-03-24 18:22:00,
2013-03-24 13:25:00,30.4,20.4,29.98,NE,45,5.0,12.0,66,0.00,,---,0.00,VWS V14.01,2013-03-24 18:25:00,
2013-03-24 13:27:00,31.0,20.3,29.98,NE,41,4.0,12.0,64,0.00,,OVC027,0.00,VWS V14.01,2013-03-24 18:27:00,
2013-03-24 13:30:00,30.4,20.4,29.98,NE,45,5.0,12.0,66,0.00,,---,0.00,VWS V14.01,2013-03-24 18:30:00,
2013-03-24 13:32:00,30.9,20.5,29.98,North,5,10.0,10.0,65,0.00,,OVC027,0.00,VWS V14.01,2013-03-24 18:32:00,
2013-03-24 13:35:00,30.4,20.4,29.98,ENE,68,5.0,12.0,66,0.00,,---,0.00,VWS V14.01,2013-03-24 18:35:00,
2013-03-24 13:37:00,30.9,20.5,29.98,NE,54,4.0,10.0,65,0.00,,OVC027,0.00,VWS V14.01,2013-03-24 18:37:00,
2013-03-24 13:40:00,30.4,20.4,29.98,NE,45,3.0,9.0,66,0.00,,---,0.00,VWS V14.01,2013-03-24 18:40:00,
2013-03-24 13:42:00,30.9,20.5,29.98,NE,53,6.0,10.0,65,0.00,,OVC027,0.00,VWS V14.01,2013-03-24 18:42:00,
2013-03-24 13:45:00,30.6,20.6,29.97,NE,45,4.0,11.0,66,0.00,,---,0.00,VWS V14.01,2013-03-24 18:45:00,
2013-03-24 13:47:00,31.0,20.6,29.98,ENE,60,0.0,10.0,65,0.00,,OVC027,0.00,VWS V14.01,2013-03-24 18:47:00,
2013-03-24 13:50:00,30.6,20.6,29.97,NE,45,5.0,10.0,66,0.00,,---,0.00,VWS V14.01,2013-03-24 18:50:00,
2013-03-24 13:52:00,31.0,20.6,29.98,ENE,63,6.0,7.0,65,0.00,,OVC027,0.00,VWS V14.01,2013-03-24 18:52:00,
2013-03-24 13:55:00,30.7,20.7,29.97,NE,45,5.0,10.0,66,0.00,,---,0.00,VWS V14.01,2013-03-24 18:55:00,
2013-03-24 13:57:00,30.9,20.5,29.98,ENE,62,4.0,11.0,65,0.00,,OVC027,0.00,VWS V14.01,2013-03-24 18:57:00,
2013-03-24 14:00:00,30.6,20.6,29.97,NE,45,6.0,12.0,66,0.00,,---,0.00,VWS V14.01,2013-03-24 19:00:00,
2013-03-24 14:02:00,30.7,20.3,29.99,East,82,4.0,9.0,65,0.00,,OVC025,0.00,VWS V14.01,2013-03-24 19:02:00,
2013-03-24 14:05:00,30.7,21.1,29.97,NE,45,4.0,9.0,67,0.00,,---,0.00,VWS V14.01,2013-03-24 19:05:00,
2013-03-24 14:08:00,30.6,20.2,29.99,ENE,61,9.0,12.0,65,0.00,,OVC025,0.00,VWS V14.01,2013-03-24 19:08:00,
2013-03-24 14:10:00,30.7,20.7,29.97,NE,45,6.0,11.0,66,0.00,,---,0.00,VWS V14.01,2013-03-24 19:10:00,
2013-03-24 14:15:00,30.7,20.7,29.96,NE,45,4.0,10.0,66,0.00,,---,0.00,VWS V14.01,2013-03-24 19:15:00,
2013-03-24 14:17:00,30.4,20.4,29.98,ENE,68,4.0,12.0,66,0.00,,OVC025,0.00,VWS V14.01,2013-03-24 19:17:00,
2013-03-24 14:20:00,30.9,20.9,29.96,NE,45,6.0,12.0,66,0.00,,---,0.00,VWS V14.01,2013-03-24 19:20:00,
2013-03-24 14:22:00,30.4,20.1,29.98,ENE,61,7.0,11.0,65,0.00,,OVC025,0.00,VWS V14.01,2013-03-24 19:22:00,
2013-03-24 14:25:00,30.9,20.9,29.96,NE,45,5.0,10.0,66,0.00,,---,0.00,VWS V14.01,2013-03-24 19:25:00,
2013-03-24 14:27:00,30.4,20.4,29.98,NE,46,4.0,12.0,66,0.00,,OVC025,0.00,VWS V14.01,2013-03-24 19:27:00,
2013-03-24 14:30:00,31.0,21.0,29.96,NE,45,5.0,11.0,66,0.00,,---,0.00,VWS V14.01,2013-03-24 19:30:00,
2013-03-24 14:32:00,30.4,20.4,29.98,ENE,57,10.0,12.0,66,0.00,,OVC025,0.00,VWS V14.01,2013-03-24 19:32:00,
2013-03-24 14:35:00,31.2,21.5,29.96,NE,45,3.0,9.0,67,0.00,,---,0.00,VWS V14.01,2013-03-24 19:35:00,
2013-03-24 14:37:00,30.4,20.4,29.98,NE,39,5.0,12.0,66,0.00,,OVC025,0.00,VWS V14.01,2013-03-24 19:37:00,
2013-03-24 14:40:00,31.5,21.1,29.96,NE,45,4.0,9.0,65,0.00,,---,0.00,VWS V14.01,2013-03-24 19:40:00,
2013-03-24 14:42:00,30.4,20.4,29.98,NE,55,0.0,9.0,66,0.00,,OVC025,0.00,VWS V14.01,2013-03-24 19:42:00,
2013-03-24 14:45:00,31.8,21.8,29.96,ENE,68,3.0,7.0,66,0.00,,---,0.00,VWS V14.01,2013-03-24 19:45:00,
2013-03-24 14:50:00,31.8,21.4,29.96,NE,45,4.0,7.0,65,0.00,,---,0.00,VWS V14.01,2013-03-24 19:50:00,
2013-03-24 14:52:00,30.6,20.6,29.97,North,355,5.0,10.0,66,0.00,,OVC025,0.00,VWS V14.01,2013-03-24 19:52:00,
2013-03-24 14:55:00,31.9,21.1,29.96,NNE,22,3.0,7.0,64,0.00,,---,0.00,VWS V14.01,2013-03-24 19:55:00,
2013-03-24 14:57:00,30.7,20.7,29.97,ENE,66,4.0,10.0,66,0.00,,OVC025,0.00,VWS V14.01,2013-03-24 19:57:00,
2013-03-24 15:00:00,32.1,21.3,29.95,NE,45,4.0,10.0,64,0.00,,---,0.00,VWS V14.01,2013-03-24 20:00:00,
2013-03-24 15:02:00,30.6,20.6,29.97,NE,41,4.0,12.0,66,0.00,,OVC025,0.00,VWS V14.01,2013-03-24 20:02:00,
2013-03-24 15:05:00,32.1,20.9,29.95,NE,45,6.0,10.0,63,0.00,,---,0.00,VWS V14.01,2013-03-24 20:05:00,
2013-03-24 15:07:00,30.7,21.1,29.97,East,86,8.0,9.0,67,0.00,,OVC025,0.00,VWS V14.01,2013-03-24 20:07:00,
2013-03-24 15:10:00,32.2,20.7,29.95,ENE,68,5.0,12.0,62,0.00,,---,0.00,VWS V14.01,2013-03-24 20:10:00,
2013-03-24 15:12:00,30.7,20.7,29.97,ENE,64,3.0,11.0,66,0.00,,OVC025,0.00,VWS V14.01,2013-03-24 20:12:00,
2013-03-24 15:15:00,32.4,20.9,29.95,ENE,68,5.0,12.0,62,0.00,,---,0.00,VWS V14.01,2013-03-24 20:15:00,
2013-03-24 15:17:00,30.7,20.7,29.96,NE,46,3.0,10.0,66,0.00,,OVC025,0.00,VWS V14.01,2013-03-24 20:17:00,
2013-03-24 15:20:00,32.5,20.6,29.95,NE,45,4.0,7.0,61,0.00,,---,0.00,VWS V14.01,2013-03-24 20:20:00,
2013-03-24 15:22:00,30.9,20.9,29.96,NE,51,6.0,12.0,66,0.00,,OVC025,0.00,VWS V14.01,2013-03-24 20:22:00,
2013-03-24 15:25:00,32.7,20.4,29.95,NE,45,4.0,10.0,60,0.00,,---,0.00,VWS V14.01,2013-03-24 20:25:00,
2013-03-24 15:27:00,30.9,20.9,29.96,NNE,29,3.0,10.0,66,0.00,,OVC025,0.00,VWS V14.01,2013-03-24 20:27:00,
2013-03-24 15:30:00,32.9,20.5,29.94,NE,45,4.0,10.0,60,0.00,,---,0.00,VWS V14.01,2013-03-24 20:30:00,
2013-03-24 15:32:00,31.0,21.0,29.96,NE,38,3.0,11.0,66,0.00,,OVC025,0.00,VWS V14.01,2013-03-24 20:32:00,
2013-03-24 15:35:00,33.1,20.4,29.94,NE,45,4.0,8.0,59,0.00,,---,0.00,VWS V14.01,2013-03-24 20:35:00,
2013-03-24 15:37:00,31.2,21.5,29.96,NE,55,1.0,9.0,67,0.00,,OVC025,0.00,VWS V14.01,2013-03-24 20:37:00,
2013-03-24 15:40:00,32.9,20.2,29.94,NE,45,5.0,10.0,59,0.00,,---,0.00,VWS V14.01,2013-03-24 20:40:00,
2013-03-24 15:42:00,31.5,21.1,29.96,ENE,59,5.0,9.0,65,0.00,,OVC025,0.00,VWS V14.01,2013-03-24 20:42:00,
2013-03-24 15:45:00,32.9,20.2,29.94,NE,45,5.0,11.0,59,0.00,,---,0.00,VWS V14.01,2013-03-24 20:45:00,
2013-03-24 15:47:00,31.8,21.8,29.96,NE,53,4.0,7.0,66,0.00,,OVC025,0.00,VWS V14.01,2013-03-24 20:47:00,
2013-03-24 15:50:00,32.8,20.5,29.94,NNE,22,4.0,11.0,60,0.00,,---,0.00,VWS V14.01,2013-03-24 20:50:00,
2013-03-24 15:52:00,31.8,21.4,29.96,NNE,27,3.0,7.0,65,0.00,,OVC025,0.00,VWS V14.01,2013-03-24 20:52:00,
2013-03-24 15:55:00,32.7,20.4,29.94,NNE,22,5.0,14.0,60,0.00,,---,0.00,VWS V14.01,2013-03-24 20:55:00,
2013-03-24 15:57:00,31.9,21.1,29.96,NE,34,6.0,7.0,64,0.00,,OVC025,0.00,VWS V14.01,2013-03-24 20:57:00,
2013-03-24 16:00:00,32.5,20.6,29.94,NE,45,5.0,11.0,61,0.00,,---,0.00,VWS V14.01,2013-03-24 21:00:00,
2013-03-24 16:02:00,32.1,21.3,29.95,NNE,27,4.0,9.0,64,0.00,,OVC025,0.00,VWS V14.01,2013-03-24 21:02:00,
2013-03-24 16:05:00,32.8,21.2,29.94,NE,45,3.0,10.0,62,0.00,,---,0.00,VWS V14.01,2013-03-24 21:05:00,
2013-03-24 16:07:00,32.1,20.9,29.95,NE,53,10.0,10.0,63,0.00,,OVC025,0.00,VWS V14.01,2013-03-24 21:07:00,
2013-03-24 16:10:00,32.9,20.9,29.94,NE,45,6.0,14.0,61,0.00,,---,0.00,VWS V14.01,2013-03-24 21:10:00,
2013-03-24 16:12:00,32.2,20.7,29.95,ENE,59,3.0,10.0,62,0.00,,OVC025,0.00,VWS V14.01,2013-03-24 21:12:00,
2013-03-24 16:15:00,32.5,20.9,29.95,NE,45,6.0,13.0,62,0.00,,---,0.00,VWS V14.01,2013-03-24 21:15:00,
2013-03-24 16:20:00,32.4,21.2,29.95,NE,45,4.0,8.0,63,0.00,,---,0.00,VWS V14.01,2013-03-24 21:20:00,
2013-03-24 16:22:00,32.5,20.6,29.95,NE,53,3.0,7.0,61,0.00,,OVC025,0.00,VWS V14.01,2013-03-24 21:22:00,
2013-03-24 16:25:00,32.1,21.3,29.95,NE,45,6.0,11.0,64,0.00,,---,0.00,VWS V14.01,2013-03-24 21:25:00,
2013-03-24 16:27:00,32.7,20.4,29.95,NE,40,4.0,10.0,60,0.00,,OVC025,0.00,VWS V14.01,2013-03-24 21:27:00,
2013-03-24 16:30:00,31.9,21.1,29.95,NE,45,5.0,10.0,64,0.00,,---,0.00,VWS V14.01,2013-03-24 21:30:00,
2013-03-24 16:32:00,32.9,20.5,29.94,NNE,29,2.0,10.0,60,0.00,,OVC025,0.00,VWS V14.01,2013-03-24 21:32:00,
2013-03-24 16:35:00,32.1,21.7,29.95,NNE,22,5.0,15.0,65,0.00,,---,0.00,VWS V14.01,2013-03-24 21:35:00,
2013-03-24 16:38:00,33.1,20.4,29.94,NE,42,2.0,8.0,59,0.00,,OVC025,0.00,VWS V14.01,2013-03-24 21:38:00,
2013-03-24 16:40:00,31.9,21.9,29.95,NNE,22,6.0,14.0,66,0.00,,---,0.00,VWS V14.01,2013-03-24 21:40:00,
2013-03-24 16:45:00,31.8,22.1,29.96,NNE,22,5.0,11.0,67,0.00,,---,0.00,VWS V14.01,2013-03-24 21:45:00,
2013-03-24 16:47:00,32.9,20.2,29.94,NE,37,5.0,11.0,59,0.00,,OVC037,0.00,VWS V14.01,2013-03-24 21:47:00,
2013-03-24 16:50:00,31.6,22.3,29.96,North,0,5.0,14.0,68,0.00,,---,0.00,VWS V14.01,2013-03-24 21:50:00,
2013-03-24 16:52:00,32.8,20.5,29.94,NNE,15,7.0,11.0,60,0.00,,OVC037,0.00,VWS V14.01,2013-03-24 21:52:00,
2013-03-24 16:55:00,31.5,22.5,29.96,NE,45,4.0,10.0,69,0.00,,---,0.00,VWS V14.01,2013-03-24 21:55:00,
2013-03-24 16:57:00,32.7,20.4,29.94,NE,38,7.0,14.0,60,0.00,,OVC037,0.00,VWS V14.01,2013-03-24 21:57:00,
2013-03-24 17:00:00,31.5,22.9,29.96,North,0,2.0,6.0,70,0.00,,---,0.00,VWS V14.01,2013-03-24 22:00:00,
2013-03-24 17:02:00,32.5,20.6,29.94,NE,54,2.0,11.0,61,0.00,,OVC038,0.00,VWS V14.01,2013-03-24 22:02:00,
2013-03-24 17:05:00,31.3,23.0,29.96,NE,45,3.0,6.0,71,0.00,,---,0.00,VWS V14.01,2013-03-24 22:05:00,
2013-03-24 17:07:00,32.8,21.2,29.94,NE,52,4.0,10.0,62,0.00,,OVC038,0.00,VWS V14.01,2013-03-24 22:07:00,
2013-03-24 17:10:00,31.3,23.3,29.96,North,0,2.0,5.0,72,0.00,,---,0.00,VWS V14.01,2013-03-24 22:10:00,
2013-03-24 17:12:00,32.9,20.9,29.94,NE,38,9.0,14.0,61,0.00,,OVC038,0.00,VWS V14.01,2013-03-24 22:12:00,
2013-03-24 17:15:00,31.2,23.2,29.97,NE,45,2.0,9.0,72,0.00,,---,0.00,VWS V14.01,2013-03-24 22:15:00,
2013-03-24 17:17:00,32.5,20.9,29.95,NE,55,9.0,13.0,62,0.00,,OVC038,0.00,VWS V14.01,2013-03-24 22:17:00,
2013-03-24 17:20:00,31.0,23.4,29.97,NNE,22,4.0,8.0,73,0.00,,---,0.00,VWS V14.01,2013-03-24 22:20:00,
2013-03-24 17:22:00,32.4,21.2,29.95,NE,46,3.0,9.0,63,0.00,,OVC038,0.00,VWS V14.01,2013-03-24 22:22:00,
2013-03-24 17:25:00,31.0,23.7,29.97,NNE,22,4.0,8.0,74,0.00,,---,0.00,VWS V14.01,2013-03-24 22:25:00,
2013-03-24 17:27:00,32.1,21.3,29.95,ENE,61,8.0,11.0,64,0.00,,OVC038,0.00,VWS V14.01,2013-03-24 22:27:00,
2013-03-24 17:30:00,30.9,23.9,29.97,NE,45,4.0,11.0,75,0.00,,---,0.00,VWS V14.01,2013-03-24 22:30:00,
2013-03-24 17:35:00,30.7,24.0,29.97,NE,45,4.0,7.0,76,0.00,,---,0.00,VWS V14.01,2013-03-24 22:35:00,
2013-03-24 17:37:00,32.1,21.7,29.95,North,5,6.0,15.0,65,0.00,,OVC038,0.00,VWS V14.01,2013-03-24 22:37:00,
2013-03-24 17:40:00,30.6,24.3,29.97,NNE,22,5.0,11.0,77,0.00,,---,0.00,VWS V14.01,2013-03-24 22:40:00,
2013-03-24 17:42:00,31.9,21.9,29.95,NNE,21,2.0,14.0,66,0.00,,OVC038,0.00,VWS V14.01,2013-03-24 22:42:00,
2013-03-24 17:45:00,30.4,24.4,29.98,NNE,22,4.0,8.0,78,0.00,,---,0.00,VWS V14.01,2013-03-24 22:45:00,
2013-03-24 17:47:00,31.8,22.1,29.96,NNE,21,5.0,11.0,67,0.00,,OVC038,0.00,VWS V14.01,2013-03-24 22:47:00,
2013-03-24 17:50:00,30.3,24.3,29.98,NE,45,3.0,6.0,78,0.00,,---,0.00,VWS V14.01,2013-03-24 22:50:00,
2013-03-24 17:52:00,31.6,22.3,29.96,NNE,17,3.0,14.0,68,0.00,,OVC038,0.00,VWS V14.01,2013-03-24 22:52:00,
2013-03-24 17:55:00,30.3,24.6,29.98,NNE,22,4.0,10.0,79,0.00,,---,0.00,VWS V14.01,2013-03-24 22:55:00,
2013-03-24 17:57:00,31.5,22.5,29.96,NE,40,3.0,10.0,69,0.00,,OVC038,0.00,VWS V14.01,2013-03-24 22:57:00,
2013-03-24 18:00:00,30.1,24.4,29.98,NE,45,3.0,7.0,79,0.00,,---,0.00,VWS V14.01,2013-03-24 23:00:00,
2013-03-24 18:02:00,31.5,22.9,29.96,NNE,32,0.0,6.0,70,0.00,,BKN042,0.00,VWS V14.01,2013-03-24 23:02:00,
2013-03-24 18:05:00,30.0,24.6,29.98,NNE,22,5.0,10.0,80,0.00,,---,0.00,VWS V14.01,2013-03-24 23:05:00,
2013-03-24 18:07:00,31.3,23.0,29.96,NNE,15,4.0,6.0,71,0.00,,BKN042,0.00,VWS V14.01,2013-03-24 23:07:00,
2013-03-24 18:10:00,29.7,24.3,29.98,NNE,22,4.0,11.0,80,0.00,,---,0.00,VWS V14.01,2013-03-24 23:10:00,
2013-03-24 18:15:00,29.5,24.4,29.98,NNE,22,4.0,9.0,81,0.00,,---,0.00,VWS V14.01,2013-03-24 23:15:00,
2013-03-24 18:17:00,31.2,23.2,29.97,North,9,6.0,9.0,72,0.00,,BKN042,0.00,VWS V14.01,2013-03-24 23:17:00,
2013-03-24 18:20:00,29.4,24.3,29.98,NNE,22,4.0,10.0,81,0.00,,---,0.00,VWS V14.01,2013-03-24 23:20:00,
2013-03-24 18:22:00,31.0,23.4,29.97,North,355,4.0,8.0,73,0.00,,BKN042,0.00,VWS V14.01,2013-03-24 23:22:00,
2013-03-24 18:25:00,29.3,24.2,29.98,NNE,22,3.0,8.0,81,0.00,,---,0.00,VWS V14.01,2013-03-24 23:25:00,
2013-03-24 18:27:00,31.0,23.7,29.97,NE,42,2.0,8.0,74,0.00,,BKN042,0.00,VWS V14.01,2013-03-24 23:27:00,
2013-03-24 18:30:00,29.3,24.2,29.98,NNE,22,2.0,10.0,81,0.00,,---,0.00,VWS V14.01,2013-03-24 23:30:00,
2013-03-24 18:32:00,30.9,23.9,29.97,NE,49,2.0,11.0,75,0.00,,BKN028,0.00,VWS V14.01,2013-03-24 23:32:00,
2013-03-24 18:35:00,29.1,24.0,29.98,NNE,22,2.0,5.0,81,0.00,,---,0.00,VWS V14.01,2013-03-24 23:35:00,
2013-03-24 18:37:00,30.7,24.0,29.97,ENE,58,2.0,7.0,76,0.00,,BKN028,0.00,VWS V14.01,2013-03-24 23:37:00,
2013-03-24 18:40:00,29.1,24.3,29.98,NNE,22,1.0,4.0,82,0.00,,---,0.00,VWS V14.01,2013-03-24 23:40:00,
2013-03-24 18:45:00,29.1,24.3,29.99,NNE,22,2.0,4.0,82,0.00,,---,0.00,VWS V14.01,2013-03-24 23:45:00,
2013-03-24 18:47:00,30.4,24.4,29.98,NNW,343,7.0,8.0,78,0.00,,BKN028,0.00,VWS V14.01,2013-03-24 23:47:00,
2013-03-24 18:50:00,29.1,24.3,29.99,North,0,3.0,5.0,82,0.00,,---,0.00,VWS V14.01,2013-03-24 23:50:00,
2013-03-24 18:55:00,29.1,24.3,29.99,North,0,2.0,6.0,82,0.00,,---,0.00,VWS V14.01,2013-03-24 23:55:00,
2013-03-24 18:57:00,30.3,24.6,29.98,NNE,24,2.0,10.0,79,0.00,,BKN028,0.00,VWS V14.01,2013-03-24 23:57:00,
2013-03-24 19:00:00,29.0,24.2,29.99,North,0,2.0,6.0,82,0.00,,---,0.00,VWS V14.01,2013-03-25 00:00:00,
2013-03-24 19:02:00,30.1,24.4,29.98,North,360,3.0,7.0,79,0.00,,OVC042,0.00,VWS V14.01,2013-03-25 00:02:00,
2013-03-24 19:05:00,29.0,23.9,29.99,North,0,2.0,6.0,81,0.00,,---,0.00,VWS V14.01,2013-03-25 00:05:00,
2013-03-24 19:07:00,30.0,24.6,29.98,NE,37,3.0,10.0,80,0.00,,OVC042,0.00,VWS V14.01,2013-03-25 00:07:00,
2013-03-24 19:10:00,28.8,23.7,29.99,North,0,2.0,6.0,81,0.00,,---,0.00,VWS V14.01,2013-03-25 00:10:00,
2013-03-24 19:12:00,29.7,24.3,29.98,North,355,5.0,11.0,80,0.00,,OVC042,0.00,VWS V14.01,2013-03-25 00:12:00,
2013-03-24 19:15:00,28.8,23.7,29.99,North,0,1.0,4.0,81,0.00,,---,0.00,VWS V14.01,2013-03-25 00:15:00,
2013-03-24 19:17:00,29.5,24.4,29.98,NE,36,4.0,9.0,81,0.00,,OVC044,0.00,VWS V14.01,2013-03-25 00:17:00,
2013-03-24 19:20:00,28.8,23.7,29.99,NNW,338,2.0,6.0,81,0.00,,---,0.00,VWS V14.01,2013-03-25 00:20:00,
2013-03-24 19:22:00,29.4,24.3,29.98,North,9,9.0,10.0,81,0.00,,OVC044,0.00,VWS V14.01,2013-03-25 00:22:00,
2013-03-24 19:25:00,28.7,23.6,29.99,NNW,338,3.0,6.0,81,0.00,,---,0.00,VWS V14.01,2013-03-25 00:25:00,
2013-03-24 19:27:00,29.3,24.2,29.98,NNE,22,2.0,9.0,81,0.00,,OVC044,0.00,VWS V14.01,2013-03-25 00:27:00,
2013-03-24 19:30:00,28.7,23.9,29.99,NNW,338,2.0,5.0,82,0.00,,---,0.00,VWS V14.01,2013-03-25 00:30:00,
2013-03-24 19:35:00,28.5,23.7,29.99,NNW,338,1.0,5.0,82,0.00,,---,0.00,VWS V14.01,2013-03-25 00:35:00,
2013-03-24 19:37:00,29.1,24.0,29.98,NNE,13,0.0,5.0,81,0.00,,OVC044,0.00,VWS V14.01,2013-03-25 00:37:00,
2013-03-24 19:40:00,28.5,23.7,29.99,NNW,338,3.0,5.0,82,0.00,,---,0.00,VWS V14.01,2013-03-25 00:40:00,
2013-03-24 19:42:00,29.1,24.3,29.98,North,9,2.0,4.0,82,0.00,,OVC044,0.00,VWS V14.01,2013-03-25 00:42:00,
2013-03-24 19:45:00,28.5,23.7,30.00,NNW,338,2.0,6.0,82,0.00,,---,0.00,VWS V14.01,2013-03-25 00:45:00,
2013-03-24 19:47:00,29.1,24.3,29.99,NNE,25,3.0,4.0,82,0.00,,OVC044,0.00,VWS V14.01,2013-03-25 00:47:00,
2013-03-24 19:50:00,28.5,23.7,30.00,NNW,338,1.0,4.0,82,0.00,,---,0.00,VWS V14.01,2013-03-25 00:50:00,
2013-03-24 19:52:00,29.1,24.3,29.99,North,9,2.0,5.0,82,0.00,,OVC044,0.00,VWS V14.01,2013-03-25 00:52:00,
2013-03-24 19:55:00,28.5,23.7,30.00,NNW,338,2.0,5.0,82,0.00,,---,0.00,VWS V14.01,2013-03-25 00:55:00,
2013-03-24 19:57:00,29.1,24.3,29.99,North,355,3.0,6.0,82,0.00,,OVC044,0.00,VWS V14.01,2013-03-25 00:57:00,
2013-03-24 20:00:00,28.5,23.7,30.00,NNW,338,3.0,5.0,82,0.00,,---,0.00,VWS V14.01,2013-03-25 01:00:00,
2013-03-24 20:02:00,29.0,24.2,29.99,North,355,4.0,5.0,82,0.00,,OVC046,0.00,VWS V14.01,2013-03-25 01:02:00,
2013-03-24 20:05:00,28.4,23.6,30.00,NNW,338,1.0,4.0,82,0.00,,---,0.00,VWS V14.01,2013-03-25 01:05:00,
2013-03-24 20:07:00,29.0,23.9,29.99,North,349,3.0,5.0,81,0.00,,OVC046,0.00,VWS V14.01,2013-03-25 01:07:00,
2013-03-24 20:10:00,28.2,23.4,30.00,NNW,338,1.0,4.0,82,0.00,,---,0.00,VWS V14.01,2013-03-25 01:10:00,
2013-03-24 20:12:00,28.8,23.7,29.99,North,355,0.0,6.0,81,0.00,,OVC046,0.00,VWS V14.01,2013-03-25 01:12:00,
2013-03-24 20:15:00,28.1,23.6,30.00,NNW,338,3.0,5.0,83,0.00,,---,0.00,VWS V14.01,2013-03-25 01:15:00,
2013-03-24 20:17:00,28.8,23.7,29.99,NNW,348,1.0,4.0,81,0.00,,OVC046,0.00,VWS V14.01,2013-03-25 01:17:00,
2013-03-24 20:20:00,28.1,23.6,30.00,NNW,338,2.0,6.0,83,0.00,,---,0.00,VWS V14.01,2013-03-25 01:20:00,
2013-03-24 20:25:00,27.9,23.4,30.00,NNW,338,1.0,4.0,83,0.00,,---,0.00,VWS V14.01,2013-03-25 01:25:00,
2013-03-24 20:27:00,28.7,23.6,29.99,NNW,345,3.0,6.0,81,0.00,,OVC046,0.00,VWS V14.01,2013-03-25 01:27:00,
2013-03-24 20:30:00,27.8,23.3,30.01,NNW,338,0.0,0.0,83,0.00,,---,0.00,VWS V14.01,2013-03-25 01:30:00,
2013-03-24 20:32:00,28.7,23.9,29.99,NNW,343,0.0,5.0,82,0.00,,OVC046,0.00,VWS V14.01,2013-03-25 01:32:00,
2013-03-24 20:35:00,27.8,23.3,30.01,NNW,338,1.0,4.0,83,0.00,,---,0.00,VWS V14.01,2013-03-25 01:35:00,
2013-03-24 20:37:00,28.5,23.7,29.99,North,5,2.0,5.0,82,0.00,,OVC046,0.00,VWS V14.01,2013-03-25 01:37:00,
2013-03-24 20:40:00,27.6,23.1,30.01,NNW,338,1.0,4.0,83,0.00,,---,0.00,VWS V14.01,2013-03-25 01:40:00,
2013-03-24 20:42:00,28.5,23.7,29.99,NNW,343,1.0,5.0,82,0.00,,OVC046,0.00,VWS V14.01,2013-03-25 01:42:00,
2013-03-24 20:45:00,27.5,23.3,30.01,NNW,338,2.0,5.0,84,0.00,,---,0.00,VWS V14.01,2013-03-25 01:45:00,
2013-03-24 20:47:00,28.5,23.7,30.00,NNW,342,1.0,6.0,82,0.00,,OVC046,0.00,VWS V14.01,2013-03-25 01:47:00,
2013-03-24 20:50:00,27.5,23.3,30.01,North,0,2.0,6.0,84,0.00,,---,0.00,VWS V14.01,2013-03-25 01:50:00,
2013-03-24 20:52:00,28.5,23.7,30.00,NNW,340,3.0,4.0,82,0.00,,OVC046,0.00,VWS V14.01,2013-03-25 01:52:00,
2013-03-24 20:55:00,27.5,23.3,30.01,North,0,2.0,5.0,84,0.00,,---,0.00,VWS V14.01,2013-03-25 01:55:00,
2013-03-24 21:00:00,27.6,23.1,30.01,North,0,3.0,7.0,83,0.00,,---,0.00,VWS V14.01,2013-03-25 02:00:00,
2013-03-24 21:02:00,28.5,23.7,30.00,NNW,342,0.0,5.0,82,0.00,,BKN041,0.00,VWS V14.01,2013-03-25 02:02:00,
2013-03-24 21:05:00,27.9,22.8,30.01,NNE,22,1.0,5.0,81,0.00,,---,0.00,VWS V14.01,2013-03-25 02:05:00,
2013-03-24 21:07:00,28.4,23.6,30.00,NNW,346,0.0,4.0,82,0.00,,BKN041,0.00,VWS V14.01,2013-03-25 02:07:00,
2013-03-24 21:10:00,28.1,22.4,30.01,NNE,22,2.0,5.0,79,0.00,,---,0.00,VWS V14.01,2013-03-25 02:10:00,
2013-03-24 21:15:00,28.4,21.8,30.01,NNE,22,3.0,6.0,76,0.00,,---,0.00,VWS V14.01,2013-03-25 02:15:00,
2013-03-24 21:17:00,28.1,23.6,30.00,NNW,330,2.0,5.0,83,0.00,,BKN041,0.00,VWS V14.01,2013-03-25 02:17:00,
2013-03-24 21:20:00,28.7,21.5,30.01,NNE,22,2.0,6.0,74,0.00,,---,0.00,VWS V14.01,2013-03-25 02:20:00,
2013-03-24 21:22:00,28.1,23.6,30.00,NW,323,3.0,5.0,83,0.00,,BKN041,0.00,VWS V14.01,2013-03-25 02:22:00,
2013-03-24 21:25:00,28.8,21.2,30.01,NNE,22,3.0,7.0,73,0.00,,---,0.00,VWS V14.01,2013-03-25 02:25:00,
2013-03-24 21:30:00,29.0,20.8,30.01,North,0,2.0,7.0,71,0.00,,---,0.00,VWS V14.01,2013-03-25 02:30:00,
2013-03-24 21:32:00,27.8,23.3,30.01,NNW,347,0.0,0.0,83,0.00,,BKN041,0.00,VWS V14.01,2013-03-25 02:32:00,
2013-03-24 21:35:00,29.0,20.8,30.01,NE,45,1.0,5.0,71,0.00,,---,0.00,VWS V14.01,2013-03-25 02:35:00,
2013-03-24 21:37:00,27.8,23.3,30.01,NNW,346,3.0,4.0,83,0.00,,BKN041,0.00,VWS V14.01,2013-03-25 02:37:00,
2013-03-24 21:40:00,29.1,20.5,30.01,NNE,22,1.0,7.0,70,0.00,,---,0.00,VWS V14.01,2013-03-25 02:40:00,
2013-03-24 21:42:00,27.6,23.1,30.01,North,350,0.0,4.0,83,0.00,,BKN041,0.00,VWS V14.01,2013-03-25 02:42:00,
2013-03-24 21:45:00,29.1,20.5,30.01,NNE,22,2.0,5.0,70,0.00,,---,0.00,VWS V14.01,2013-03-25 02:45:00,
2013-03-24 21:47:00,27.5,23.3,30.01,NNW,346,1.0,4.0,84,0.00,,BKN041,0.00,VWS V14.01,2013-03-25 02:47:00,
2013-03-24 21:50:00,29.1,20.5,30.01,North,0,3.0,5.0,70,0.00,,---,0.00,VWS V14.01,2013-03-25 02:50:00,
2013-03-24 21:52:00,27.5,23.3,30.01,North,351,1.0,5.0,84,0.00,,BKN041,0.00,VWS V14.01,2013-03-25 02:52:00,
2013-03-24 21:55:00,29.1,20.2,30.01,North,0,2.0,5.0,69,0.00,,---,0.00,VWS V14.01,2013-03-25 02:55:00,
2013-03-24 21:57:00,27.5,23.3,30.01,North,5,3.0,5.0,84,0.00,,BKN041,0.00,VWS V14.01,2013-03-25 02:57:00,
2013-03-24 22:00:00,29.1,20.2,30.01,NNE,19,3.0,6.0,69,0.00,,OVC043,0.00,VWS V14.01,2013-03-25 03:00:00,
2013-03-24 22:05:00,29.1,20.2,30.01,NE,36,3.0,6.0,69,0.00,,OVC043,0.00,VWS V14.01,2013-03-25 03:05:00,
2013-03-24 22:07:00,27.9,22.8,30.01,North,355,3.0,5.0,81,0.00,,BKN043,0.00,VWS V14.01,2013-03-25 03:07:00,
2013-03-24 22:10:00,29.3,20.4,30.01,ENE,57,2.0,7.0,69,0.00,,OVC043,0.00,VWS V14.01,2013-03-25 03:10:00,
2013-03-24 22:12:00,28.1,22.4,30.01,NNE,21,2.0,5.0,79,0.00,,BKN043,0.00,VWS V14.01,2013-03-25 03:12:00,
2013-03-24 22:15:00,29.3,20.1,30.01,NNE,23,1.0,5.0,68,0.00,,OVC043,0.00,VWS V14.01,2013-03-25 03:15:00,
2013-03-24 22:17:00,28.4,21.8,30.01,NNE,30,1.0,6.0,76,0.00,,BKN043,0.00,VWS V14.01,2013-03-25 03:17:00,
2013-03-24 22:20:00,29.3,20.1,30.01,NNE,16,6.0,7.0,68,0.00,,OVC043,0.00,VWS V14.01,2013-03-25 03:20:00,
2013-03-24 22:23:00,28.7,21.5,30.01,NNE,19,1.0,6.0,74,0.00,,BKN043,0.00,VWS V14.01,2013-03-25 03:23:00,
2013-03-24 22:25:00,29.3,20.1,30.01,NNE,22,2.0,7.0,68,0.00,,OVC043,0.00,VWS V14.01,2013-03-25 03:25:00,
2013-03-24 22:30:00,29.3,20.4,30.01,NNE,13,2.0,6.0,69,0.00,,OVC043,0.00,VWS V14.01,2013-03-25 03:30:00,
2013-03-24 22:32:00,29.0,20.8,30.01,NNE,32,0.0,7.0,71,0.00,,BKN043,0.00,VWS V14.01,2013-03-25 03:32:00,
2013-03-24 22:35:00,29.3,20.4,30.01,NNE,25,3.0,6.0,69,0.00,,OVC043,0.00,VWS V14.01,2013-03-25 03:35:00,
2013-03-24 22:37:00,29.0,20.8,30.01,NE,52,1.0,5.0,71,0.00,,BKN043,0.00,VWS V14.01,2013-03-25 03:37:00,
2013-03-24 22:40:00,29.3,20.4,30.01,NNE,13,2.0,11.0,69,0.00,,OVC043,0.00,VWS V14.01,2013-03-25 03:40:00,
2013-03-24 22:45:00,29.3,20.4,30.01,NE,54,3.0,9.0,69,0.00,,OVC043,0.00,VWS V14.01,2013-03-25 03:45:00,
2013-03-24 22:47:00,29.1,20.5,30.01,NNE,16,2.0,5.0,70,0.00,,BKN043,0.00,VWS V14.01,2013-03-25 03:47:00,
2013-03-24 22:50:00,29.3,20.1,30.01,NNE,17,4.0,7.0,68,0.00,,OVC043,0.00,VWS V14.01,2013-03-25 03:50:00,
2013-03-24 22:52:00,29.1,20.5,30.01,North,360,2.0,5.0,70,0.00,,BKN043,0.00,VWS V14.01,2013-03-25 03:52:00,
2013-03-24 22:55:00,29.4,20.2,30.01,North,9,2.0,7.0,68,0.00,,OVC043,0.00,VWS V14.01,2013-03-25 03:55:00,
2013-03-24 23:00:00,29.4,20.2,30.01,NNE,22,4.0,9.0,68,0.00,,---,0.00,VWS V14.01,2013-03-25 04:00:00,
2013-03-24 23:05:00,29.3,20.1,30.01,North,9,7.0,10.0,68,0.00,,OVC037,0.00,VWS V14.01,2013-03-25 04:05:00,
2013-03-24 23:10:00,29.1,19.9,30.01,NNE,13,3.0,10.0,68,0.00,,OVC037,0.00,VWS V14.01,2013-03-25 04:10:00,
2013-03-24 23:15:00,29.0,19.8,30.01,NNE,15,2.0,10.0,68,0.00,,OVC037,0.00,VWS V14.01,2013-03-25 04:15:00,
2013-03-24 23:20:00,28.8,19.6,30.01,NNE,12,4.0,8.0,68,0.00,,OVC037,0.00,VWS V14.01,2013-03-25 04:20:00,
2013-03-24 23:25:00,28.7,19.5,30.01,NNE,23,2.0,6.0,68,0.00,,OVC037,0.00,VWS V14.01,2013-03-25 04:25:00,
2013-03-24 23:30:00,28.5,19.6,30.02,North,5,6.0,8.0,69,0.00,,OVC037,0.00,VWS V14.01,2013-03-25 04:30:00,
2013-03-24 23:35:00,28.4,19.5,30.02,NNE,17,0.0,9.0,69,0.00,,OVC037,0.00,VWS V14.01,2013-03-25 04:35:00,
2013-03-24 23:40:00,28.2,19.4,30.02,North,360,2.0,8.0,69,0.00,,OVC037,0.00,VWS V14.01,2013-03-25 04:40:00,
2013-03-24 23:45:00,27.9,19.1,30.01,North,5,4.0,8.0,69,0.00,,OVC037,0.00,VWS V14.01,2013-03-25 04:45:00,
2013-03-24 23:50:00,27.9,19.1,30.01,NNE,27,3.0,7.0,69,0.00,,OVC037,0.00,VWS V14.01,2013-03-25 04:50:00,
2013-03-24 23:55:00,27.8,19.0,30.01,North,5,6.0,6.0,69,0.00,,OVC037,0.00,VWS V14.01,2013-03-25 04:55:00,